WEATHER DATA

YESTERDAY
Time Temp. Dewp. Hum. Wind dir Wind speed Wind gust Bar. 1h Prec. 24h Prec.
00:14 1.6 -0.3 87 0 0 1021.8 0.0000 0.0000
00:24 1.4 -0.5 87 0 0 1021.9 0.0000 0.0000
00:34 1.3 -0.4 88 0 0 1021.8 0.0000 0.0000
00:45 1.2 -0.5 88 0 0 1022.1 0.0000 0.0000
00:54 1.1 -0.6 88 0 0 1022.1 0.0000 0.0000
01:07 0.9 -0.8 88 0 0 1021.9 0.0000 0.0000
01:16 0.8 -0.8 88 0 0 1022 0.0000 0.0000
01:26 0.7 -0.8 89 0 0 1022 0.0000 0.0000
01:37 0.7 -0.8 89 0 0 1021.9 0.0000 0.0000
01:47 0.6 -0.9 89 0 0 1022 0.0000 0.0000
01:56 0.5 -1 89 0 0 1021.9 0.0000 0.0000
02:07 0.4 -1.1 89 0 0 1021.9 0.0000 0.0000
02:17 0.2 -1.2 89 0 0 1021.9 0.0000 0.0000
02:37 0.1 -1.2 90 0 0 1021.9 0.0000 0.0000
02:47 0 -1.3 90 0 0 1021.7 0.0000 0.0000
02:57 0 -1.3 90 0 0 1021.7 0.0000 0.0000
03:07 -0.1 -1.4 90 0 0 1021.8 0.0000 0.0000
03:17 -0.1 -1.4 90 0 0 1021.5 0.0000 0.0000
03:27 -0.2 -1.5 90 0 0 1021.5 0.0000 0.0000
03:37 -0.3 -1.4 91 0 0 1021.5 0.0000 0.0000
03:47 -0.4 -1.5 91 0 0 1021.3 0.0000 0.0000
03:58 -0.4 -1.5 91 0 0 1021.4 0.0000 0.0000
04:08 -0.5 -1.6 91 0 0 1021.4 0.0000 0.0000
04:17 -0.6 -1.7 91 0 0 1021.3 0.0000 0.0000
04:28 -0.7 -1.8 91 0 0 1021.4 0.0000 0.0000
04:38 -0.7 -1.8 91 0 0 1021.5 0.0000 0.0000
04:47 -0.7 -1.8 91 0 0 1021.8 0.0000 0.0000
04:58 -0.8 -1.9 91 0 0 1021.8 0.0000 0.0000
05:08 -0.8 -1.9 91 0 0 1021.8 0.0000 0.0000
05:18 -0.8 -1.9 91 0 0 1021.5 0.0000 0.0000
05:28 -0.9 -2 91 0 0 1021.5 0.0000 0.0000
05:38 -0.9 -2 91 0 0 1021.7 0.0000 0.0000
05:48 -0.9 -2 91 0 0 1021.5 0.0000 0.0000
05:58 -1 -2.1 91 0 0 1021.5 0.0000 0.0000
06:08 -1 -2.1 91 0 0 1021.5 0.0000 0.0000
06:19 -1.1 -2.2 91 0 0 1021.5 0.0000 0.0000
06:28 -1.1 -2.2 91 0 0 1021.2 0.0000 0.0000
06:38 -1.2 -2.3 91 0 0 1021.4 0.0000 0.0000
06:49 -1.2 -2.3 91 0 0 1021.4 0.0000 0.0000
06:59 -1.3 -2.4 91 0 0 1021.5 0.0000 0.0000
07:08 -1.4 -2.5 91 0 0 1021.3 0.0000 0.0000
07:18 -1.4 -2.5 91 0 0 1021.4 0.0000 0.0000
07:29 -1.5 -2.5 92 0 0 1021.5 0.0000 0.0000
07:39 -1.5 -2.5 92 0 0 1021.7 0.0000 0.0000
07:49 -1.5 -2.5 92 0 0 1021.7 0.0000 0.0000
07:59 -1.5 -2.5 92 0 0 1021.7 0.0000 0.0000
08:09 -1.5 -2.5 92 0 0 1021.8 0.0000 0.0000
08:19 -1.4 -2.4 92 0 0 1021.8 0.0000 0.0000
08:29 -1.4 -2.4 92 0 0 1021.5 0.0000 0.0000
08:39 -1.3 -2.3 92 0 0 1021.8 0.0000 0.0000
08:49 -1.2 -2.2 92 0 0 1021.8 0.0000 0.0000
08:59 -1 -1.9 93 0 0 1021.7 0.0000 0.0000
09:10 -0.9 -1.8 93 0 0 1021.7 0.0000 0.0000
09:20 -0.6 -1.5 93 0 0 1021.7 0.0000 0.0000
09:30 -0.3 -1 94 0 0 1021.4 0.0000 0.0000
09:39 0 -0.7 94 0 0 1021.5 0.0000 0.0000
09:50 0.3 -0.5 94 0 0 1021.4 0.0000 0.0000
10:00 0.7 -0.1 94 0 0 1021.3 0.0000 0.0000
10:10 1.2 0.3 94 0 0 1021.3 0.0000 0.0000
10:31 2.3 1.3 93 0 0 1021.3 0.0000 0.0000
10:41 2.9 1.7 92 0 0 1021.2 0.0000 0.0000
10:50 3.7 2.2 90 0 0 1021.3 0.0000 0.0000
11:01 4.5 2.7 88 0 0 1021.2 0.0000 0.0000
11:11 5.2 2.9 85 0 0 1021.1 0.0000 0.0000
11:21 5.8 3 82 0 0 1021 0.0000 0.0000
11:31 6.3 3.1 80 0 0 1020.8 0.0000 0.0000
11:42 6.8 3.2 78 0 0 1020.7 0.0000 0.0000
11:51 7.4 3.3 75 0 0 1020.6 0.0000 0.0000
12:01 8 3.5 73 0 0 1020.5 0.0000 0.0000
12:12 8.6 3.4 70 0 0 1020.3 0.0000 0.0000
12:22 9.2 3.6 68 0 0 1020.2 0.0000 0.0000
12:32 9.8 3.5 65 0 0 1020.1 0.0000 0.0000
12:42 10.4 3.7 63 0 0 1019.9 0.0000 0.0000
12:52 10.7 3.7 62 0 0 1019.8 0.0000 0.0000
13:02 11.3 4.1 61 0 0 1019.5 0.0000 0.0000
13:12 11.7 4.4 61 0 0 1019.4 0.0000 0.0000
13:22 11.9 4.4 60 0 0 1019.3 0.0000 0.0000
13:33 12.1 4.3 59 0 0 1019.3 0.0000 0.0000
13:43 12.4 4.6 59 0 0 1019.1 0.0000 0.0000
13:53 13 4.7 57 0 0 1019.1 0.0000 0.0000
14:03 13.4 5.1 57 0 0 1018.9 0.0000 0.0000
14:13 13.8 4.9 55 0 0 1018.8 0.0000
19:49 6.8 2.3 73 0 0 1017.2 0.0000 0.0000
19:58 6.6 2.1 73 0 0 1017.2 0.0000 0.0000
20:07 6.4 2.1 74 0 0 1017.1 0.0000 0.0000
20:16 6.3 2.2 75 0 0 1017.2 0.0000 0.0000
20:26 6.1 2.2 76 0 0 1017.2 0.0000 0.0000
20:36 5.9 2 76 0 0 1017.4 0.0000 0.0000
20:47 5.6 1.7 76 0 0 1017.5 0.0000 0.0000
20:56 5.5 1.8 77 0 0 1017.5 0.0000 0.0000
21:06 5.3 1.6 77 0 0 1017.5 0.0000 0.0000
21:17 5.2 1.7 78 0 0 1017.5 0.0000 0.0000
21:27 5 1.7 79 0 0 1017.5 0.0000 0.0000
21:36 4.9 1.6 79 0 0 1017.5 0.0000 0.0000
21:46 4.7 1.5 80 0 0 1017.7 0.0000 0.0000
21:57 4.6 1.5 80 0 0 1017.5 0.0000 0.0000
22:07 4.5 1.4 80 0 0 1017.5 0.0000 0.0000
22:16 4.2 1.1 80 0 0 1017.5 0.0000 0.0000
22:27 4.1 1 80 0 0 1017.6 0.0000 0.0000
22:37 3.9 0.9 81 0 0 1017.5 0.0000 0.0000
22:47 3.8 0.8 81 0 0 1017.5 0.0000 0.0000
22:57 3.6 0.8 82 0 0 1017.6 0.0000 0.0000
23:07 3.5 0.9 83 0 0 1017.5 0.0000 0.0000
23:17 3.4 0.8 83 0 0 1017.5 0.0000 0.0000
23:27 3.3 0.7 83 0 0 1017.5 0.0000 0.0000
23:37 3.2 0.6 83 0 0 1017.5 0.0000 0.0000
23:47 3 0.4 83 0 0 1017.6 0.0000 0.0000
23:55 2.9 0.5 84 0 0 1017.6 0.0000 0.0000

DAY STATISTIC

2019-02-18
TEMPERATURE
AVERAGE
2.8
HIGH
13.8
14:13
LOW
-1.5
07:29
PRESSURE
AVERAGE
1020.3
HIGH
1022.1
00:45
LOW
1017.1
20:07
DEWPOINT
AVERAGE
0.2
HIGH
5.1
14:03
LOW
-2.5
07:08
HUMIDITY
AVERAGE
84
HIGH
94
09:30
LOW
55
14:13
WIND SPEED
AVERAGE
0.0
HIGH
0.0
17:50
WIND GUST
AVERAGE
0.0
HIGH
0.0
17:50
WIND DIRECTION
PREVAILING
%
PRECIPITATION
RAIN HOUR
0.0
RAIN DAY
0.0
TEMPERATURE (°C)
LOW
-1.5
HIGH
13.8
AVERAGE
2.8
PRESSURE (hpa)
LOW
1017.1
HIGH
1022.1
AVERAGE
1020.3
DEVICE